createdAt,value
2018-08-28T00:01:07.280Z,67.00
2018-08-28T00:03:35.522Z,67.00
2018-08-28T00:06:03.855Z,66.80
2018-08-28T00:08:32.096Z,66.80
2018-08-28T00:11:00.342Z,66.80
2018-08-28T00:13:28.601Z,67.00
2018-08-28T00:15:56.836Z,67.00
2018-08-28T00:18:25.215Z,67.00
2018-08-28T00:20:53.487Z,67.10
2018-08-28T00:23:21.779Z,67.10
2018-08-28T00:25:50.075Z,67.40
2018-08-28T00:28:18.317Z,67.50
2018-08-28T00:30:46.589Z,67.50
2018-08-28T00:33:14.804Z,67.50
2018-08-28T00:35:43.033Z,67.70
2018-08-28T00:38:11.272Z,67.80
2018-08-28T00:40:39.526Z,67.90
2018-08-28T00:43:07.829Z,67.80
2018-08-28T00:45:36.057Z,67.80
2018-08-28T00:48:04.293Z,67.80
2018-08-28T00:50:32.515Z,67.80
2018-08-28T00:53:00.754Z,67.80
2018-08-28T00:55:29.005Z,67.80
2018-08-28T00:57:57.246Z,67.80
2018-08-28T01:00:25.473Z,67.70
2018-08-28T01:02:53.706Z,67.60
2018-08-28T01:05:23.640Z,67.70
2018-08-28T01:07:52.308Z,67.70
2018-08-28T01:10:20.560Z,67.80
2018-08-28T01:12:48.799Z,67.80
2018-08-28T01:15:17.050Z,67.80
2018-08-28T01:17:45.273Z,67.90
2018-08-28T01:20:13.485Z,67.90
2018-08-28T01:22:41.720Z,68.00
2018-08-28T01:25:09.943Z,68.10
2018-08-28T01:27:38.257Z,68.10
2018-08-28T01:30:06.554Z,68.10
2018-08-28T01:32:34.830Z,68.10
2018-08-28T01:35:03.114Z,68.10
2018-08-28T01:37:31.457Z,68.10
2018-08-28T01:39:59.681Z,68.20
2018-08-28T01:42:27.921Z,68.30
2018-08-28T01:44:56.153Z,68.40
2018-08-28T01:47:24.401Z,68.40
2018-08-28T01:49:52.653Z,68.40
2018-08-28T01:52:21.401Z,68.40
2018-08-28T01:54:49.785Z,68.50
2018-08-28T01:57:18.018Z,68.40
2018-08-28T01:59:46.237Z,68.40
2018-08-28T02:02:14.449Z,68.50
2018-08-28T02:04:42.678Z,68.50
2018-08-28T02:07:10.911Z,68.50
2018-08-28T02:09:39.152Z,68.50
2018-08-28T02:12:07.417Z,68.40
2018-08-28T02:14:35.652Z,68.60
2018-08-28T02:17:03.885Z,68.70
2018-08-28T02:19:32.114Z,68.90
2018-08-28T02:22:00.373Z,69.00
2018-08-28T02:24:28.617Z,69.10
2018-08-28T02:26:56.877Z,69.10
2018-08-28T02:29:25.113Z,69.30
2018-08-28T02:31:53.354Z,69.20
2018-08-28T02:34:21.624Z,69.30
2018-08-28T02:36:49.880Z,69.30
2018-08-28T02:39:18.135Z,69.30
2018-08-28T02:41:46.373Z,69.30
2018-08-28T02:44:14.594Z,69.20
2018-08-28T02:46:42.830Z,69.30
2018-08-28T02:49:11.077Z,69.20
2018-08-28T02:51:39.311Z,69.20
2018-08-28T02:54:07.549Z,69.20
2018-08-28T02:56:35.786Z,69.10
2018-08-28T02:59:04.001Z,69.20
2018-08-28T03:01:32.252Z,69.30
2018-08-28T03:04:00.512Z,69.30
2018-08-28T03:06:28.757Z,69.20
2018-08-28T03:08:56.985Z,69.10
2018-08-28T03:11:25.274Z,69.10
2018-08-28T03:13:53.554Z,68.90
2018-08-28T03:16:21.738Z,69.00
2018-08-28T03:18:49.987Z,69.00
2018-08-28T03:21:18.489Z,68.90
2018-08-28T03:23:46.731Z,68.90
2018-08-28T03:26:14.952Z,69.00
2018-08-28T03:28:43.190Z,69.10
2018-08-28T03:31:11.419Z,69.20
2018-08-28T03:33:39.669Z,69.20
2018-08-28T03:36:07.884Z,69.20
2018-08-28T03:38:36.129Z,69.10
2018-08-28T03:41:04.380Z,69.00
2018-08-28T03:43:32.611Z,69.10
2018-08-28T03:46:00.826Z,68.90
2018-08-28T03:48:29.083Z,68.90
2018-08-28T03:50:57.307Z,69.00
2018-08-28T03:53:25.556Z,69.00
2018-08-28T03:55:53.798Z,69.00
2018-08-28T03:58:22.051Z,69.00
2018-08-28T04:00:50.293Z,69.00
2018-08-28T04:03:18.526Z,69.10
2018-08-28T04:05:46.778Z,69.10
2018-08-28T04:08:15.007Z,69.10
2018-08-28T04:10:43.264Z,69.00
2018-08-28T04:13:11.502Z,69.20
2018-08-28T04:15:39.770Z,69.20
2018-08-28T04:18:07.988Z,69.10
2018-08-28T04:20:36.237Z,69.20
2018-08-28T04:23:04.497Z,69.20
2018-08-28T04:25:32.733Z,69.30
2018-08-28T04:28:01.018Z,69.40
2018-08-28T04:30:29.331Z,69.40
2018-08-28T04:32:57.525Z,69.50
2018-08-28T04:35:25.763Z,69.50
2018-08-28T04:37:53.998Z,69.40
2018-08-28T04:40:22.298Z,69.40
2018-08-28T04:42:50.670Z,69.40
2018-08-28T04:45:18.930Z,69.40
2018-08-28T04:47:47.192Z,69.40
2018-08-28T04:50:15.609Z,69.30
2018-08-28T04:52:45.118Z,69.20
2018-08-28T04:55:13.502Z,69.10
2018-08-28T04:57:41.817Z,69.10
2018-08-28T05:00:10.165Z,69.20
2018-08-28T05:02:38.617Z,69.20
2018-08-28T05:05:08.687Z,69.20
2018-08-28T05:07:37.026Z,69.10
2018-08-28T05:10:06.132Z,69.00
2018-08-28T05:12:34.603Z,69.00
2018-08-28T05:15:02.958Z,69.00
2018-08-28T05:17:31.477Z,69.00
2018-08-28T05:19:59.754Z,69.00
2018-08-28T05:22:28.167Z,69.00
2018-08-28T05:24:56.662Z,69.00
2018-08-28T05:27:24.993Z,69.10
2018-08-28T05:29:53.298Z,69.00
2018-08-28T05:32:21.542Z,68.90
2018-08-28T05:34:49.809Z,68.90
2018-08-28T05:37:18.726Z,69.50
2018-08-28T05:39:47.005Z,68.80
2018-08-28T05:42:15.851Z,68.60
2018-08-28T05:44:44.299Z,68.60
2018-08-28T05:47:12.681Z,68.60
2018-08-28T05:49:41.091Z,68.60
2018-08-28T05:52:09.458Z,68.70
2018-08-28T05:54:37.961Z,68.70
2018-08-28T05:57:06.673Z,68.80
2018-08-28T05:59:34.991Z,68.90
2018-08-28T06:02:03.860Z,68.80
2018-08-28T06:04:32.262Z,68.50
2018-08-28T06:07:00.577Z,68.60
2018-08-28T06:09:28.961Z,68.50
2018-08-28T06:11:57.365Z,68.30
2018-08-28T06:14:25.812Z,68.10
2018-08-28T06:16:54.269Z,68.10
2018-08-28T06:19:22.666Z,68.20
2018-08-28T06:21:51.033Z,68.10
2018-08-28T06:24:19.586Z,68.00
2018-08-28T06:26:47.879Z,67.70
2018-08-28T06:29:16.206Z,67.50
2018-08-28T06:31:44.454Z,67.20
2018-08-28T06:34:12.709Z,67.10
2018-08-28T06:36:41.058Z,67.00
2018-08-28T06:39:09.957Z,66.60
2018-08-28T06:41:38.398Z,66.50
2018-08-28T06:44:06.784Z,66.40
2018-08-28T06:46:35.014Z,66.10
2018-08-28T06:49:03.314Z,65.90
2018-08-28T06:51:32.225Z,66.60
2018-08-28T06:54:00.535Z,65.70
2018-08-28T06:56:28.800Z,65.60
2018-08-28T06:58:57.032Z,65.20
2018-08-28T07:01:25.269Z,65.00
2018-08-28T07:03:53.600Z,64.80
2018-08-28T07:06:21.834Z,64.50
2018-08-28T07:08:50.094Z,64.70
2018-08-28T07:11:18.337Z,63.60
2018-08-28T07:13:46.583Z,63.30
2018-08-28T07:16:14.836Z,62.90
2018-08-28T07:18:43.141Z,62.80
2018-08-28T07:21:11.416Z,62.40
2018-08-28T07:23:39.653Z,62.30
2018-08-28T07:26:08.005Z,62.00
2018-08-28T07:28:36.205Z,61.80
2018-08-28T07:31:04.709Z,61.40
2018-08-28T07:33:32.971Z,61.10
2018-08-28T07:36:01.241Z,61.00
2018-08-28T07:38:29.477Z,60.80
2018-08-28T07:40:57.720Z,60.20
2018-08-28T07:43:25.993Z,60.10
2018-08-28T07:45:54.325Z,59.90
2018-08-28T07:48:22.650Z,59.60
2018-08-28T07:50:50.889Z,59.20
2018-08-28T07:53:19.156Z,58.90
2018-08-28T07:55:47.414Z,58.80
2018-08-28T07:58:15.717Z,58.30
2018-08-28T08:00:43.957Z,57.80
2018-08-28T08:03:12.210Z,57.40
2018-08-28T08:05:40.439Z,56.70
2018-08-28T08:08:08.675Z,56.20
2018-08-28T08:10:37.084Z,56.00
2018-08-28T08:13:05.321Z,55.60
2018-08-28T08:15:33.600Z,55.20
2018-08-28T08:18:01.932Z,55.00
2018-08-28T08:20:30.160Z,54.70
2018-08-28T08:22:58.441Z,54.50
2018-08-28T08:25:26.861Z,54.30
2018-08-28T08:27:55.369Z,53.90
2018-08-28T08:30:23.779Z,53.60
2018-08-28T08:32:52.467Z,53.10
2018-08-28T08:35:20.852Z,52.60
2018-08-28T08:37:49.220Z,51.90
2018-08-28T08:40:17.667Z,51.70
2018-08-28T08:42:46.166Z,51.40
2018-08-28T08:45:14.469Z,51.00
2018-08-28T08:47:42.685Z,50.50
2018-08-28T08:50:10.945Z,50.20
2018-08-28T08:52:39.237Z,50.00
2018-08-28T08:55:07.803Z,49.60
2018-08-28T08:57:36.033Z,49.80
2018-08-28T09:00:04.293Z,48.90
2018-08-28T09:02:32.534Z,48.70
2018-08-28T09:05:00.861Z,48.60
2018-08-28T09:07:29.136Z,48.40
2018-08-28T09:09:57.390Z,48.30
2018-08-28T09:12:25.626Z,48.00
2018-08-28T09:14:53.867Z,48.00
2018-08-28T09:17:22.133Z,47.80
2018-08-28T09:19:50.706Z,47.60
2018-08-28T09:22:18.916Z,47.50
2018-08-28T09:24:47.145Z,47.60
2018-08-28T09:27:15.418Z,47.60
2018-08-28T09:29:43.709Z,47.60
2018-08-28T09:32:12.135Z,48.00
2018-08-28T09:34:40.386Z,47.20
2018-08-28T09:37:08.672Z,47.10
2018-08-28T09:39:36.938Z,47.00
2018-08-28T09:42:05.213Z,46.90
2018-08-28T09:44:33.636Z,46.80
2018-08-28T09:47:02.182Z,46.60
2018-08-28T09:49:30.561Z,46.60
2018-08-28T09:51:58.874Z,46.40
2018-08-28T09:54:27.124Z,46.10
2018-08-28T09:56:55.753Z,45.90
2018-08-28T09:59:24.340Z,45.80
2018-08-28T10:01:52.661Z,45.70
2018-08-28T10:04:21.016Z,45.60
2018-08-28T10:06:49.274Z,45.60
2018-08-28T10:09:18.421Z,45.70
2018-08-28T10:11:46.852Z,45.60
2018-08-28T10:14:15.158Z,45.60
2018-08-28T10:16:43.469Z,45.80
2018-08-28T10:19:11.738Z,45.60
2018-08-28T10:21:40.014Z,45.60
2018-08-28T10:24:08.322Z,45.50
2018-08-28T10:26:36.609Z,45.30
2018-08-28T10:29:04.933Z,45.20
2018-08-28T10:31:33.237Z,45.20
2018-08-28T10:34:01.646Z,45.10
2018-08-28T10:36:29.898Z,44.90
2018-08-28T10:38:58.158Z,44.70
2018-08-28T10:41:26.460Z,44.50
2018-08-28T10:43:54.752Z,44.60
2018-08-28T10:46:23.095Z,44.70
2018-08-28T10:48:51.258Z,44.60
2018-08-28T10:51:19.518Z,44.50
2018-08-28T10:53:48.088Z,44.60
2018-08-28T10:56:16.501Z,44.60
2018-08-28T10:58:44.773Z,44.60
2018-08-28T11:01:13.139Z,45.00
2018-08-28T11:03:41.730Z,44.20
2018-08-28T11:06:10.161Z,44.00
2018-08-28T11:08:38.605Z,44.00
2018-08-28T11:11:07.035Z,43.90
2018-08-28T11:13:35.450Z,43.80
2018-08-28T11:16:03.906Z,43.60
2018-08-28T11:18:32.389Z,43.50
2018-08-28T11:21:00.818Z,43.30
2018-08-28T11:23:29.117Z,43.70
2018-08-28T11:25:57.367Z,43.10
2018-08-28T11:28:25.625Z,43.20
2018-08-28T11:30:54.017Z,43.20
2018-08-28T11:33:22.447Z,43.00
2018-08-28T11:35:51.667Z,42.90
2018-08-28T11:38:20.035Z,42.80
2018-08-28T11:40:48.337Z,42.90
2018-08-28T11:43:16.646Z,42.70
2018-08-28T11:45:45.082Z,42.50
2018-08-28T11:48:13.389Z,42.40
2018-08-28T11:50:41.889Z,42.40
2018-08-28T11:53:10.265Z,42.50
2018-08-28T11:55:38.671Z,42.40
2018-08-28T11:58:07.114Z,42.40
2018-08-28T12:00:36.246Z,42.40
2018-08-28T12:03:04.681Z,42.10
2018-08-28T12:05:33.206Z,41.90
2018-08-28T12:08:01.769Z,41.80
2018-08-28T12:10:30.515Z,41.60
2018-08-28T12:12:58.876Z,41.60
2018-08-28T12:15:27.134Z,41.40
2018-08-28T12:17:55.477Z,41.30
2018-08-28T12:20:23.796Z,41.20
2018-08-28T12:22:52.065Z,41.10
2018-08-28T12:25:20.297Z,41.20
2018-08-28T12:27:48.540Z,41.10
2018-08-28T12:30:16.778Z,41.00
2018-08-28T12:32:45.197Z,41.00
2018-08-28T12:35:13.506Z,40.90
2018-08-28T12:37:41.793Z,40.80
2018-08-28T12:40:10.144Z,40.60
2018-08-28T12:42:38.439Z,40.70
2018-08-28T12:45:06.941Z,40.50
2018-08-28T12:47:37.372Z,40.30
2018-08-28T12:50:06.861Z,40.20
2018-08-28T12:52:35.245Z,40.20
2018-08-28T12:55:03.801Z,40.20
2018-08-28T12:57:32.116Z,40.10
2018-08-28T13:00:00.422Z,40.00
2018-08-28T13:02:29.001Z,40.00
2018-08-28T13:04:57.186Z,39.70
2018-08-28T13:07:25.831Z,39.30
2018-08-28T13:09:54.995Z,39.40
2018-08-28T13:12:23.470Z,39.40
2018-08-28T13:14:52.008Z,39.30
2018-08-28T13:17:20.445Z,39.20
2018-08-28T13:19:49.044Z,39.20
2018-08-28T13:22:17.481Z,39.20
2018-08-28T13:24:46.125Z,39.10
2018-08-28T13:27:14.473Z,39.10
2018-08-28T13:29:43.009Z,39.00
2018-08-28T13:32:11.561Z,39.00
2018-08-28T13:34:39.825Z,39.00
2018-08-28T13:37:08.115Z,38.90
2018-08-28T13:39:36.417Z,38.90
2018-08-28T13:42:05.561Z,38.80
2018-08-28T13:44:33.815Z,38.80
2018-08-28T13:47:02.114Z,38.70
2018-08-28T13:49:30.341Z,38.60
2018-08-28T13:51:58.610Z,38.30
2018-08-28T13:54:27.050Z,38.20
2018-08-28T13:56:55.183Z,38.10
2018-08-28T13:59:23.442Z,37.90
2018-08-28T14:01:51.681Z,37.00
2018-08-28T14:04:19.974Z,36.40
2018-08-28T14:06:48.257Z,36.40
2018-08-28T14:09:16.529Z,36.30
2018-08-28T14:11:44.765Z,35.60
2018-08-28T14:14:13.079Z,34.70
2018-08-28T14:16:41.322Z,34.70
2018-08-28T14:19:09.568Z,34.80
2018-08-28T14:21:37.929Z,34.80
2018-08-28T14:24:06.154Z,35.10
2018-08-28T14:26:34.494Z,35.20
2018-08-28T14:29:02.859Z,35.00
2018-08-28T14:31:31.072Z,34.60
2018-08-28T14:33:59.584Z,34.50
2018-08-28T14:36:27.935Z,35.10
2018-08-28T14:38:56.542Z,34.80
2018-08-28T14:41:24.781Z,35.10
2018-08-28T14:43:53.034Z,35.20
2018-08-28T14:46:21.381Z,35.10
2018-08-28T14:48:49.618Z,34.50
2018-08-28T14:51:17.877Z,33.70
2018-08-28T14:53:46.168Z,32.70
2018-08-28T14:56:14.445Z,32.70
2018-08-28T14:58:42.731Z,33.10
2018-08-28T15:01:10.998Z,33.50
2018-08-28T15:03:39.239Z,33.90
2018-08-28T15:06:07.491Z,34.10
2018-08-28T15:08:35.713Z,34.20
2018-08-28T15:11:04.042Z,34.50
2018-08-28T15:13:32.391Z,34.70
2018-08-28T15:16:00.634Z,35.00
2018-08-28T15:18:28.883Z,35.30
2018-08-28T15:20:57.127Z,35.40
2018-08-28T15:23:25.414Z,35.60
2018-08-28T15:25:53.669Z,35.80
2018-08-28T15:28:21.930Z,35.90
2018-08-28T15:30:50.198Z,36.30
2018-08-28T15:33:18.440Z,36.30
2018-08-28T15:35:46.711Z,36.50
2018-08-28T15:38:15.610Z,36.40
2018-08-28T15:40:45.097Z,36.50
2018-08-28T15:43:13.349Z,36.60
2018-08-28T15:45:41.604Z,36.70
2018-08-28T15:48:09.886Z,36.80
2018-08-28T15:50:38.166Z,36.70
2018-08-28T15:53:06.506Z,36.50
2018-08-28T15:55:34.774Z,36.30
2018-08-28T15:58:03.242Z,36.10
2018-08-28T16:00:31.478Z,36.00
2018-08-28T16:02:59.718Z,35.90
2018-08-28T16:05:28.044Z,36.00
2018-08-28T16:07:56.321Z,35.90
2018-08-28T16:10:24.581Z,35.80
2018-08-28T16:12:52.839Z,35.90
2018-08-28T16:15:21.090Z,35.90
2018-08-28T16:17:49.320Z,35.90
2018-08-28T16:20:17.598Z,36.40
2018-08-28T16:22:53.253Z,37.00
2018-08-28T16:25:21.574Z,37.50
2018-08-28T16:27:49.885Z,38.20
2018-08-28T16:30:19.121Z,38.50
2018-08-28T16:32:47.389Z,38.80
2018-08-28T16:35:15.633Z,38.80
2018-08-28T16:37:43.871Z,39.20
2018-08-28T16:40:12.101Z,39.50
2018-08-28T16:42:40.374Z,39.40
2018-08-28T16:45:08.657Z,39.10
2018-08-28T16:47:36.885Z,38.90
2018-08-28T16:50:05.286Z,38.70
2018-08-28T16:52:33.469Z,39.50
2018-08-28T16:55:02.036Z,39.40
2018-08-28T16:57:31.401Z,39.80
2018-08-28T16:59:59.666Z,39.90
2018-08-28T17:02:27.923Z,40.20
2018-08-28T17:04:56.141Z,40.20
2018-08-28T17:07:24.386Z,39.90
2018-08-28T17:09:52.617Z,40.00
2018-08-28T17:12:20.939Z,40.30
2018-08-28T17:14:49.186Z,40.40
2018-08-28T17:17:17.397Z,40.50
2018-08-28T17:19:45.630Z,40.40
2018-08-28T17:22:14.038Z,40.50
2018-08-28T17:24:42.459Z,40.80
2018-08-28T17:27:10.719Z,40.70
2018-08-28T17:29:38.971Z,40.40
2018-08-28T17:32:07.226Z,40.20
2018-08-28T17:34:35.453Z,39.90
2018-08-28T17:37:03.853Z,39.70
2018-08-28T17:39:32.077Z,39.80
2018-08-28T17:42:00.309Z,39.60
2018-08-28T17:44:28.560Z,39.50
2018-08-28T17:46:56.834Z,39.60
2018-08-28T17:49:25.054Z,40.10
2018-08-28T17:51:53.439Z,39.40
2018-08-28T17:54:21.704Z,39.40
2018-08-28T17:56:49.930Z,39.40
2018-08-28T17:59:18.225Z,39.50
2018-08-28T18:01:46.530Z,39.50
2018-08-28T18:04:14.850Z,39.60
2018-08-28T18:06:43.146Z,39.80
2018-08-28T18:09:11.411Z,39.70
2018-08-28T18:11:39.648Z,39.70
2018-08-28T18:14:07.889Z,39.70
2018-08-28T18:16:36.470Z,39.80
2018-08-28T18:19:04.653Z,39.90
2018-08-28T18:21:32.901Z,40.00
2018-08-28T18:24:01.226Z,40.10
2018-08-28T18:26:29.485Z,40.10
2018-08-28T18:28:57.765Z,40.10
2018-08-28T18:31:26.018Z,41.00
2018-08-28T18:33:54.253Z,40.40
2018-08-28T18:36:22.562Z,40.60
2018-08-28T18:38:50.882Z,40.90
2018-08-28T18:41:19.160Z,41.20
2018-08-28T18:43:47.472Z,41.30
2018-08-28T18:46:15.790Z,41.40
2018-08-28T18:48:44.048Z,41.60
2018-08-28T18:51:12.397Z,41.70
2018-08-28T18:53:40.674Z,42.50
2018-08-28T18:56:09.019Z,42.20
2018-08-28T18:58:37.262Z,42.30
2018-08-28T19:01:05.718Z,42.40
2018-08-28T19:03:33.952Z,42.60
2018-08-28T19:06:02.197Z,42.60
2018-08-28T19:08:30.442Z,42.80
2018-08-28T19:10:58.773Z,42.80
2018-08-28T19:13:27.014Z,43.00
2018-08-28T19:15:55.286Z,43.20
2018-08-28T19:18:23.838Z,43.40
2018-08-28T19:20:52.138Z,43.50
2018-08-28T19:23:20.417Z,43.60
2018-08-28T19:25:48.625Z,43.80
2018-08-28T19:28:16.870Z,45.90
2018-08-28T19:30:45.107Z,45.80
2018-08-28T19:33:13.390Z,46.40
2018-08-28T19:35:41.677Z,46.20
2018-08-28T19:38:09.925Z,46.00
2018-08-28T19:40:38.173Z,45.90
2018-08-28T19:43:06.500Z,46.00
2018-08-28T19:45:34.725Z,46.40
2018-08-28T19:48:02.980Z,46.30
2018-08-28T19:50:31.325Z,46.40
2018-08-28T19:52:59.588Z,47.10
2018-08-28T19:55:27.853Z,47.60
2018-08-28T19:57:56.087Z,47.60
2018-08-28T20:00:24.319Z,48.20
2018-08-28T20:02:52.635Z,48.30
2018-08-28T20:05:20.866Z,48.70
2018-08-28T20:07:49.125Z,48.80
2018-08-28T20:10:17.369Z,48.40
2018-08-28T20:12:45.810Z,48.20
2018-08-28T20:15:14.186Z,48.60
2018-08-28T20:17:42.521Z,48.30
2018-08-28T20:20:10.762Z,48.80
2018-08-28T20:22:38.994Z,48.20
2018-08-28T20:25:07.260Z,48.70
2018-08-28T20:27:36.377Z,49.20
2018-08-28T20:30:04.791Z,49.80
2018-08-28T20:32:33.046Z,50.10
2018-08-28T20:35:01.622Z,49.60
2018-08-28T20:37:29.887Z,49.80
2018-08-28T20:39:58.097Z,50.10
2018-08-28T20:42:26.360Z,50.00
2018-08-28T20:44:54.618Z,49.60
2018-08-28T20:47:22.853Z,49.60
2018-08-28T20:49:51.098Z,49.80
2018-08-28T20:52:19.322Z,50.10
2018-08-28T20:54:47.572Z,50.00
2018-08-28T20:57:15.866Z,50.00
2018-08-28T20:59:44.197Z,50.20
2018-08-28T21:02:12.422Z,50.70
2018-08-28T21:04:40.693Z,51.00
2018-08-28T21:07:08.969Z,51.00
2018-08-28T21:09:37.246Z,51.20
2018-08-28T21:12:05.675Z,51.10
2018-08-28T21:14:33.905Z,51.40
2018-08-28T21:17:02.171Z,51.80
2018-08-28T21:19:30.407Z,51.50
2018-08-28T21:21:58.649Z,51.50
2018-08-28T21:24:26.925Z,51.60
2018-08-28T21:26:55.176Z,51.90
2018-08-28T21:29:23.554Z,52.10
2018-08-28T21:31:51.761Z,52.60
2018-08-28T21:34:20.076Z,53.00
2018-08-28T21:36:48.344Z,53.30
2018-08-28T21:39:16.632Z,53.40
2018-08-28T21:41:44.878Z,54.30
2018-08-28T21:44:13.113Z,53.50
2018-08-28T21:46:41.437Z,53.50
2018-08-28T21:49:09.892Z,53.70
2018-08-28T21:51:38.217Z,53.80
2018-08-28T21:54:06.520Z,53.60
2018-08-28T21:56:34.789Z,53.80
2018-08-28T21:59:03.322Z,53.70
2018-08-28T22:01:31.569Z,53.80
2018-08-28T22:03:59.807Z,53.90
2018-08-28T22:06:33.345Z,54.10
2018-08-28T22:09:01.575Z,53.90
2018-08-28T22:11:29.851Z,54.00
2018-08-28T22:13:58.108Z,54.10
2018-08-28T22:16:26.338Z,54.30
2018-08-28T22:18:54.590Z,54.20
2018-08-28T22:21:22.777Z,54.20
2018-08-28T22:23:51.057Z,54.40
2018-08-28T22:26:19.254Z,54.50
2018-08-28T22:28:47.433Z,55.50
2018-08-28T22:31:15.610Z,55.10
2018-08-28T22:33:43.790Z,55.20
2018-08-28T22:36:12.002Z,55.30
2018-08-28T22:38:40.188Z,55.30
2018-08-28T22:41:08.378Z,55.00
2018-08-28T22:43:36.574Z,55.20
2018-08-28T22:46:04.753Z,55.30
2018-08-28T22:48:32.985Z,55.30
2018-08-28T22:51:01.169Z,55.30
2018-08-28T22:53:29.369Z,55.40
2018-08-28T22:55:57.550Z,55.60
2018-08-28T22:58:25.739Z,55.30
2018-08-28T23:00:53.921Z,55.60
2018-08-28T23:03:22.138Z,55.40
2018-08-28T23:05:50.333Z,55.20
2018-08-28T23:08:18.497Z,55.40
2018-08-28T23:10:46.686Z,55.60
2018-08-28T23:13:14.897Z,55.90
2018-08-28T23:15:43.126Z,55.70
2018-08-28T23:18:11.301Z,55.60
2018-08-28T23:20:39.488Z,55.80
2018-08-28T23:23:07.734Z,55.90
2018-08-28T23:25:35.993Z,55.70
2018-08-28T23:28:04.200Z,55.80
2018-08-28T23:30:32.397Z,56.00
2018-08-28T23:33:00.602Z,56.10
2018-08-28T23:35:28.809Z,55.90
2018-08-28T23:37:57.015Z,56.10
2018-08-28T23:40:25.219Z,56.40
2018-08-28T23:42:53.413Z,56.20
2018-08-28T23:45:21.609Z,56.50
2018-08-28T23:47:49.785Z,56.50
2018-08-28T23:50:18.022Z,56.30
2018-08-28T23:52:46.241Z,56.50
2018-08-28T23:55:14.457Z,56.80
2018-08-28T23:57:42.641Z,56.90
